sensor_id;sensor_type;location;lat;lon;timestamp;pressure;altitude;pressure_sealevel;temperature;humidity
51439;BME280;38816;51.142;-0.974;2022-12-18T00:02:04;100758.72;;;-2.64;100.00
51439;BME280;38816;51.142;-0.974;2022-12-18T00:04:30;100746.22;;;-2.74;100.00
51439;BME280;38816;51.142;-0.974;2022-12-18T00:06:55;100755.50;;;-2.73;100.00
51439;BME280;38816;51.142;-0.974;2022-12-18T00:09:21;100736.31;;;-2.83;100.00
51439;BME280;38816;51.142;-0.974;2022-12-18T00:11:46;100742.13;;;-2.84;100.00
51439;BME280;38816;51.142;-0.974;2022-12-18T00:14:13;100735.31;;;-2.85;100.00
51439;BME280;38816;51.142;-0.974;2022-12-18T00:16:38;100739.06;;;-2.80;100.00
51439;BME280;38816;51.142;-0.974;2022-12-18T00:19:05;100725.59;;;-2.80;100.00
51439;BME280;38816;51.142;-0.974;2022-12-18T00:21:33;100723.22;;;-2.78;100.00
51439;BME280;38816;51.142;-0.974;2022-12-18T00:23:59;100715.88;;;-2.75;100.00
51439;BME280;38816;51.142;-0.974;2022-12-18T00:26:30;100711.00;;;-2.74;100.00
51439;BME280;38816;51.142;-0.974;2022-12-18T00:29:00;100711.97;;;-2.72;100.00
51439;BME280;38816;51.142;-0.974;2022-12-18T00:31:26;100722.63;;;-2.64;100.00
51439;BME280;38816;51.142;-0.974;2022-12-18T00:33:54;100695.94;;;-2.62;100.00
51439;BME280;38816;51.142;-0.974;2022-12-18T00:36:22;100704.06;;;-2.55;100.00
51439;BME280;38816;51.142;-0.974;2022-12-18T00:38:48;100689.59;;;-2.57;100.00
51439;BME280;38816;51.142;-0.974;2022-12-18T00:41:15;100695.31;;;-2.48;100.00
51439;BME280;38816;51.142;-0.974;2022-12-18T00:44:02;100681.75;;;-2.50;100.00
51439;BME280;38816;51.142;-0.974;2022-12-18T00:46:27;100679.25;;;-2.50;100.00
51439;BME280;38816;51.142;-0.974;2022-12-18T00:48:52;100677.59;;;-2.49;100.00
51439;BME280;38816;51.142;-0.974;2022-12-18T00:51:18;100669.59;;;-2.56;100.00
51439;BME280;38816;51.142;-0.974;2022-12-18T00:53:43;100674.09;;;-2.51;100.00
51439;BME280;38816;51.142;-0.974;2022-12-18T00:56:09;100671.34;;;-2.55;100.00
51439;BME280;38816;51.142;-0.974;2022-12-18T00:58:34;100655.03;;;-2.60;100.00
51439;BME280;38816;51.142;-0.974;2022-12-18T01:00:59;100634.31;;;-2.67;100.00
51439;BME280;38816;51.142;-0.974;2022-12-18T01:03:25;100658.31;;;-2.61;100.00
51439;BME280;38816;51.142;-0.974;2022-12-18T01:05:50;100656.34;;;-2.65;100.00
51439;BME280;38816;51.142;-0.974;2022-12-18T01:08:15;100652.69;;;-2.68;100.00
51439;BME280;38816;51.142;-0.974;2022-12-18T01:10:41;100635.03;;;-2.80;100.00
51439;BME280;38816;51.142;-0.974;2022-12-18T01:13:06;100660.50;;;-2.65;100.00
51439;BME280;38816;51.142;-0.974;2022-12-18T01:15:32;100654.69;;;-2.64;100.00
51439;BME280;38816;51.142;-0.974;2022-12-18T01:17:57;100637.59;;;-2.68;100.00
51439;BME280;38816;51.142;-0.974;2022-12-18T01:20:22;100649.91;;;-2.61;100.00
51439;BME280;38816;51.142;-0.974;2022-12-18T01:22:48;100636.06;;;-2.66;100.00
51439;BME280;38816;51.142;-0.974;2022-12-18T01:25:13;100641.22;;;-2.65;100.00
51439;BME280;38816;51.142;-0.974;2022-12-18T01:27:39;100640.34;;;-2.65;100.00
51439;BME280;38816;51.142;-0.974;2022-12-18T01:30:04;100647.91;;;-2.65;100.00
51439;BME280;38816;51.142;-0.974;2022-12-18T01:32:31;100638.13;;;-2.72;100.00
51439;BME280;38816;51.142;-0.974;2022-12-18T01:34:56;100632.56;;;-2.68;100.00
51439;BME280;38816;51.142;-0.974;2022-12-18T01:37:22;100623.88;;;-2.84;100.00
51439;BME280;38816;51.142;-0.974;2022-12-18T01:39:47;100636.38;;;-2.73;100.00
51439;BME280;38816;51.142;-0.974;2022-12-18T01:42:14;100648.09;;;-2.74;100.00
51439;BME280;38816;51.142;-0.974;2022-12-18T01:44:58;100649.50;;;-2.77;100.00
51439;BME280;38816;51.142;-0.974;2022-12-18T01:47:32;100658.53;;;-2.80;100.00
51439;BME280;38816;51.142;-0.974;2022-12-18T01:50:00;100642.91;;;-2.87;100.00
51439;BME280;38816;51.142;-0.974;2022-12-18T01:52:31;100648.44;;;-2.91;100.00
51439;BME280;38816;51.142;-0.974;2022-12-18T01:54:57;100646.56;;;-2.94;100.00
51439;BME280;38816;51.142;-0.974;2022-12-18T01:57:25;100666.06;;;-2.91;100.00
51439;BME280;38816;51.142;-0.974;2022-12-18T01:59:53;100647.09;;;-2.98;100.00
51439;BME280;38816;51.142;-0.974;2022-12-18T02:02:20;100652.88;;;-2.99;100.00
51439;BME280;38816;51.142;-0.974;2022-12-18T02:04:46;100655.63;;;-2.96;100.00
51439;BME280;38816;51.142;-0.974;2022-12-18T02:12:52;100653.59;;;-2.90;100.00
51439;BME280;38816;51.142;-0.974;2022-12-18T02:15:31;100645.63;;;-2.84;100.00
51439;BME280;38816;51.142;-0.974;2022-12-18T02:18:06;100643.88;;;-2.85;100.00
51439;BME280;38816;51.142;-0.974;2022-12-18T02:20:43;100654.63;;;-2.76;100.00
51439;BME280;38816;51.142;-0.974;2022-12-18T02:23:36;100661.53;;;-2.73;100.00
51439;BME280;38816;51.142;-0.974;2022-12-18T02:29:33;100663.88;;;-2.65;100.00
51439;BME280;38816;51.142;-0.974;2022-12-18T02:31:59;100666.59;;;-2.62;100.00
51439;BME280;38816;51.142;-0.974;2022-12-18T02:34:30;100661.13;;;-2.68;100.00
51439;BME280;38816;51.142;-0.974;2022-12-18T02:36:57;100651.94;;;-2.67;100.00
51439;BME280;38816;51.142;-0.974;2022-12-18T02:39:25;100644.38;;;-2.67;100.00
51439;BME280;38816;51.142;-0.974;2022-12-18T02:41:52;100647.78;;;-2.67;100.00
51439;BME280;38816;51.142;-0.974;2022-12-18T02:44:17;100624.56;;;-2.74;100.00
51439;BME280;38816;51.142;-0.974;2022-12-18T02:46:50;100622.59;;;-2.78;100.00
51439;BME280;38816;51.142;-0.974;2022-12-18T02:54:52;100622.34;;;-2.82;100.00
51439;BME280;38816;51.142;-0.974;2022-12-18T02:57:49;100624.09;;;-2.81;100.00
51439;BME280;38816;51.142;-0.974;2022-12-18T03:00:21;100599.47;;;-2.85;100.00
51439;BME280;38816;51.142;-0.974;2022-12-18T03:02:59;100592.06;;;-2.83;100.00
51439;BME280;38816;51.142;-0.974;2022-12-18T03:05:33;100597.00;;;-2.73;100.00
51439;BME280;38816;51.142;-0.974;2022-12-18T03:08:10;100599.53;;;-2.73;100.00
51439;BME280;38816;51.142;-0.974;2022-12-18T03:11:08;100600.38;;;-2.72;100.00
51439;BME280;38816;51.142;-0.974;2022-12-18T03:13:50;100585.59;;;-2.80;100.00
51439;BME280;38816;51.142;-0.974;2022-12-18T03:16:25;100577.50;;;-2.75;100.00
51439;BME280;38816;51.142;-0.974;2022-12-18T03:18:56;100578.72;;;-2.70;100.00
51439;BME280;38816;51.142;-0.974;2022-12-18T03:21:38;100581.94;;;-2.61;100.00
51439;BME280;38816;51.142;-0.974;2022-12-18T03:24:07;100581.50;;;-2.56;100.00
51439;BME280;38816;51.142;-0.974;2022-12-18T03:26:35;100586.75;;;-2.52;100.00
51439;BME280;38816;51.142;-0.974;2022-12-18T03:29:09;100591.16;;;-2.50;100.00
51439;BME280;38816;51.142;-0.974;2022-12-18T03:31:37;100587.22;;;-2.46;100.00
51439;BME280;38816;51.142;-0.974;2022-12-18T03:34:11;100588.00;;;-2.36;100.00
51439;BME280;38816;51.142;-0.974;2022-12-18T03:36:38;100573.38;;;-2.30;100.00
51439;BME280;38816;51.142;-0.974;2022-12-18T03:39:03;100587.34;;;-2.21;100.00
51439;BME280;38816;51.142;-0.974;2022-12-18T03:41:34;100579.41;;;-2.16;100.00
51439;BME280;38816;51.142;-0.974;2022-12-18T03:45:08;100584.22;;;-2.07;100.00
51439;BME280;38816;51.142;-0.974;2022-12-18T03:47:26;100575.88;;;-2.06;100.00
51439;BME280;38816;51.142;-0.974;2022-12-18T03:52:50;100574.78;;;-1.86;100.00
51439;BME280;38816;51.142;-0.974;2022-12-18T03:55:19;100560.84;;;-1.81;100.00
51439;BME280;38816;51.142;-0.974;2022-12-18T03:57:47;100579.81;;;-1.74;100.00
51439;BME280;38816;51.142;-0.974;2022-12-18T04:00:16;100562.94;;;-1.75;100.00
51439;BME280;38816;51.142;-0.974;2022-12-18T04:02:53;100564.16;;;-1.70;100.00
51439;BME280;38816;51.142;-0.974;2022-12-18T04:05:20;100574.88;;;-1.61;100.00
51439;BME280;38816;51.142;-0.974;2022-12-18T04:07:49;100568.06;;;-1.62;100.00
51439;BME280;38816;51.142;-0.974;2022-12-18T04:10:16;100565.19;;;-1.55;100.00
51439;BME280;38816;51.142;-0.974;2022-12-18T04:12:42;100555.13;;;-1.55;100.00
51439;BME280;38816;51.142;-0.974;2022-12-18T04:15:09;100550.63;;;-1.59;100.00
51439;BME280;38816;51.142;-0.974;2022-12-18T04:17:35;100553.59;;;-1.53;100.00
51439;BME280;38816;51.142;-0.974;2022-12-18T04:20:00;100546.59;;;-1.57;100.00
51439;BME280;38816;51.142;-0.974;2022-12-18T04:22:26;100543.06;;;-1.59;100.00
51439;BME280;38816;51.142;-0.974;2022-12-18T04:24:51;100555.34;;;-1.52;100.00
51439;BME280;38816;51.142;-0.974;2022-12-18T04:27:16;100545.91;;;-1.55;100.00
51439;BME280;38816;51.142;-0.974;2022-12-18T04:29:42;100543.94;;;-1.47;100.00
51439;BME280;38816;51.142;-0.974;2022-12-18T04:32:08;100545.75;;;-1.44;100.00
51439;BME280;38816;51.142;-0.974;2022-12-18T04:34:33;100525.97;;;-1.51;100.00
51439;BME280;38816;51.142;-0.974;2022-12-18T04:36:59;100517.53;;;-1.52;100.00
51439;BME280;38816;51.142;-0.974;2022-12-18T04:39:24;100517.06;;;-1.46;100.00
51439;BME280;38816;51.142;-0.974;2022-12-18T04:41:50;100509.84;;;-1.54;100.00
51439;BME280;38816;51.142;-0.974;2022-12-18T04:44:15;100506.66;;;-1.51;100.00
51439;BME280;38816;51.142;-0.974;2022-12-18T04:46:41;100512.25;;;-1.55;100.00
51439;BME280;38816;51.142;-0.974;2022-12-18T04:49:06;100493.22;;;-1.63;100.00
51439;BME280;38816;51.142;-0.974;2022-12-18T04:51:32;100501.22;;;-1.57;100.00
51439;BME280;38816;51.142;-0.974;2022-12-18T04:53:57;100489.47;;;-1.57;100.00
51439;BME280;38816;51.142;-0.974;2022-12-18T04:56:22;100476.56;;;-1.61;100.00
51439;BME280;38816;51.142;-0.974;2022-12-18T04:58:48;100480.06;;;-1.59;100.00
51439;BME280;38816;51.142;-0.974;2022-12-18T05:03:54;100482.88;;;-1.55;100.00
51439;BME280;38816;51.142;-0.974;2022-12-18T05:06:19;100473.59;;;-1.56;100.00
51439;BME280;38816;51.142;-0.974;2022-12-18T05:08:45;100469.31;;;-1.57;100.00
51439;BME280;38816;51.142;-0.974;2022-12-18T05:11:13;100467.34;;;-1.61;100.00
51439;BME280;38816;51.142;-0.974;2022-12-18T05:13:41;100459.88;;;-1.59;100.00
51439;BME280;38816;51.142;-0.974;2022-12-18T05:16:07;100452.53;;;-1.56;100.00
51439;BME280;38816;51.142;-0.974;2022-12-18T05:18:33;100451.53;;;-1.58;100.00
51439;BME280;38816;51.142;-0.974;2022-12-18T05:20:58;100444.28;;;-1.54;100.00
51439;BME280;38816;51.142;-0.974;2022-12-18T05:23:24;100446.25;;;-1.49;100.00
51439;BME280;38816;51.142;-0.974;2022-12-18T05:25:54;100451.72;;;-1.43;100.00
51439;BME280;38816;51.142;-0.974;2022-12-18T05:28:20;100446.38;;;-1.48;100.00
51439;BME280;38816;51.142;-0.974;2022-12-18T05:30:53;100452.13;;;-1.37;100.00
51439;BME280;38816;51.142;-0.974;2022-12-18T05:33:20;100440.31;;;-1.38;100.00
51439;BME280;38816;51.142;-0.974;2022-12-18T05:35:54;100444.66;;;-1.36;100.00
51439;BME280;38816;51.142;-0.974;2022-12-18T05:38:21;100438.66;;;-1.38;100.00
51439;BME280;38816;51.142;-0.974;2022-12-18T05:40:50;100420.78;;;-1.41;100.00
51439;BME280;38816;51.142;-0.974;2022-12-18T05:43:16;100421.66;;;-1.40;100.00
51439;BME280;38816;51.142;-0.974;2022-12-18T05:45:42;100420.22;;;-1.37;100.00
51439;BME280;38816;51.142;-0.974;2022-12-18T05:48:08;100415.41;;;-1.34;100.00
51439;BME280;38816;51.142;-0.974;2022-12-18T05:50:38;100419.88;;;-1.30;100.00
51439;BME280;38816;51.142;-0.974;2022-12-18T05:53:04;100402.66;;;-1.35;100.00
51439;BME280;38816;51.142;-0.974;2022-12-18T05:55:33;100400.31;;;-1.20;100.00
51439;BME280;38816;51.142;-0.974;2022-12-18T05:57:59;100391.16;;;-1.18;100.00
51439;BME280;38816;51.142;-0.974;2022-12-18T06:00:25;100382.81;;;-1.17;100.00
51439;BME280;38816;51.142;-0.974;2022-12-18T06:02:50;100385.06;;;-1.09;100.00
51439;BME280;38816;51.142;-0.974;2022-12-18T06:05:16;100372.56;;;-1.07;100.00
51439;BME280;38816;51.142;-0.974;2022-12-18T06:07:41;100375.41;;;-1.03;100.00
51439;BME280;38816;51.142;-0.974;2022-12-18T06:10:06;100369.66;;;-1.00;100.00
51439;BME280;38816;51.142;-0.974;2022-12-18T06:12:32;100348.31;;;-1.05;100.00
51439;BME280;38816;51.142;-0.974;2022-12-18T06:14:59;100365.97;;;-0.92;100.00
51439;BME280;38816;51.142;-0.974;2022-12-18T06:17:28;100358.41;;;-0.92;100.00
51439;BME280;38816;51.142;-0.974;2022-12-18T06:19:54;100353.94;;;-0.96;100.00
51439;BME280;38816;51.142;-0.974;2022-12-18T06:22:20;100361.72;;;-0.93;100.00
51439;BME280;38816;51.142;-0.974;2022-12-18T06:24:45;100366.28;;;-0.87;100.00
51439;BME280;38816;51.142;-0.974;2022-12-18T06:27:11;100356.25;;;-0.86;100.00
51439;BME280;38816;51.142;-0.974;2022-12-18T06:29:36;100365.91;;;-0.80;100.00
51439;BME280;38816;51.142;-0.974;2022-12-18T06:32:01;100365.78;;;-0.82;100.00
51439;BME280;38816;51.142;-0.974;2022-12-18T06:34:27;100362.50;;;-0.81;100.00
51439;BME280;38816;51.142;-0.974;2022-12-18T06:36:52;100357.63;;;-0.78;100.00
51439;BME280;38816;51.142;-0.974;2022-12-18T06:39:17;100358.50;;;-0.77;100.00
51439;BME280;38816;51.142;-0.974;2022-12-18T06:41:43;100354.34;;;-0.77;100.00
51439;BME280;38816;51.142;-0.974;2022-12-18T06:44:08;100356.97;;;-0.75;100.00
51439;BME280;38816;51.142;-0.974;2022-12-18T06:46:33;100350.06;;;-0.78;100.00
51439;BME280;38816;51.142;-0.974;2022-12-18T06:48:59;100338.59;;;-0.72;100.00
51439;BME280;38816;51.142;-0.974;2022-12-18T06:51:25;100325.69;;;-0.77;100.00
51439;BME280;38816;51.142;-0.974;2022-12-18T06:53:50;100330.16;;;-0.73;100.00
51439;BME280;38816;51.142;-0.974;2022-12-18T06:56:16;100345.78;;;-0.65;100.00
51439;BME280;38816;51.142;-0.974;2022-12-18T06:58:41;100337.34;;;-0.66;100.00
51439;BME280;38816;51.142;-0.974;2022-12-18T07:01:09;100340.81;;;-0.64;100.00
51439;BME280;38816;51.142;-0.974;2022-12-18T07:03:36;100351.91;;;-0.62;100.00
51439;BME280;38816;51.142;-0.974;2022-12-18T07:06:01;100346.94;;;-0.60;100.00
51439;BME280;38816;51.142;-0.974;2022-12-18T07:08:30;100348.69;;;-0.59;100.00
51439;BME280;38816;51.142;-0.974;2022-12-18T07:10:55;100342.75;;;-0.60;100.00
51439;BME280;38816;51.142;-0.974;2022-12-18T07:13:21;100327.53;;;-0.61;100.00
51439;BME280;38816;51.142;-0.974;2022-12-18T07:15:46;100330.41;;;-0.55;100.00
51439;BME280;38816;51.142;-0.974;2022-12-18T07:18:11;100318.31;;;-0.61;100.00
51439;BME280;38816;51.142;-0.974;2022-12-18T07:20:37;100320.44;;;-0.54;100.00
51439;BME280;38816;51.142;-0.974;2022-12-18T07:23:03;100324.91;;;-0.49;100.00
51439;BME280;38816;51.142;-0.974;2022-12-18T07:25:33;100310.78;;;-0.46;100.00
51439;BME280;38816;51.142;-0.974;2022-12-18T07:27:58;100309.31;;;-0.42;100.00
51439;BME280;38816;51.142;-0.974;2022-12-18T07:30:23;100314.47;;;-0.41;100.00
51439;BME280;38816;51.142;-0.974;2022-12-18T07:32:49;100295.63;;;-0.46;100.00
51439;BME280;38816;51.142;-0.974;2022-12-18T07:35:17;100295.84;;;-0.43;100.00
51439;BME280;38816;51.142;-0.974;2022-12-18T07:37:43;100296.03;;;-0.40;100.00
51439;BME280;38816;51.142;-0.974;2022-12-18T07:40:09;100284.94;;;-0.42;100.00
51439;BME280;38816;51.142;-0.974;2022-12-18T07:42:35;100292.91;;;-0.36;100.00
51439;BME280;38816;51.142;-0.974;2022-12-18T07:45:02;100297.97;;;-0.36;100.00
51439;BME280;38816;51.142;-0.974;2022-12-18T07:47:28;100285.13;;;-0.39;100.00
51439;BME280;38816;51.142;-0.974;2022-12-18T07:49:54;100288.88;;;-0.32;100.00
51439;BME280;38816;51.142;-0.974;2022-12-18T07:52:19;100281.44;;;-0.31;100.00
51439;BME280;38816;51.142;-0.974;2022-12-18T07:54:45;100278.13;;;-0.30;100.00
51439;BME280;38816;51.142;-0.974;2022-12-18T07:57:11;100273.25;;;-0.27;100.00
51439;BME280;38816;51.142;-0.974;2022-12-18T07:59:36;100279.25;;;-0.24;100.00
51439;BME280;38816;51.142;-0.974;2022-12-18T08:02:02;100291.22;;;-0.22;100.00
51439;BME280;38816;51.142;-0.974;2022-12-18T08:04:28;100297.28;;;-0.18;100.00
51439;BME280;38816;51.142;-0.974;2022-12-18T08:06:53;100291.66;;;-0.14;100.00
51439;BME280;38816;51.142;-0.974;2022-12-18T08:09:19;100287.38;;;-0.15;100.00
51439;BME280;38816;51.142;-0.974;2022-12-18T08:11:44;100301.94;;;-0.11;100.00
51439;BME280;38816;51.142;-0.974;2022-12-18T08:14:10;100281.94;;;-0.08;100.00
51439;BME280;38816;51.142;-0.974;2022-12-18T08:16:35;100285.94;;;0.03;100.00
51439;BME280;38816;51.142;-0.974;2022-12-18T08:19:01;100292.59;;;0.16;100.00
51439;BME280;38816;51.142;-0.974;2022-12-18T08:21:29;100298.78;;;0.21;100.00
51439;BME280;38816;51.142;-0.974;2022-12-18T08:23:57;100295.84;;;0.28;100.00
51439;BME280;38816;51.142;-0.974;2022-12-18T08:26:24;100292.88;;;0.35;100.00
51439;BME280;38816;51.142;-0.974;2022-12-18T08:28:50;100297.44;;;0.41;100.00
51439;BME280;38816;51.142;-0.974;2022-12-18T08:31:16;100302.84;;;0.47;100.00
51439;BME280;38816;51.142;-0.974;2022-12-18T08:33:42;100308.22;;;0.53;100.00
51439;BME280;38816;51.142;-0.974;2022-12-18T08:36:08;100302.41;;;0.54;100.00
51439;BME280;38816;51.142;-0.974;2022-12-18T08:38:34;100311.88;;;0.58;100.00
51439;BME280;38816;51.142;-0.974;2022-12-18T08:43:25;100315.66;;;0.65;100.00
51439;BME280;38816;51.142;-0.974;2022-12-18T08:46:10;100324.81;;;0.78;100.00
51439;BME280;38816;51.142;-0.974;2022-12-18T08:48:35;100302.66;;;0.73;100.00
51439;BME280;38816;51.142;-0.974;2022-12-18T08:51:01;100309.09;;;0.83;100.00
51439;BME280;38816;51.142;-0.974;2022-12-18T08:53:26;100295.31;;;0.78;100.00
51439;BME280;38816;51.142;-0.974;2022-12-18T08:55:52;100298.91;;;0.82;100.00
51439;BME280;38816;51.142;-0.974;2022-12-18T08:58:19;100291.47;;;0.85;100.00
51439;BME280;38816;51.142;-0.974;2022-12-18T09:00:44;100318.88;;;0.92;100.00
51439;BME280;38816;51.142;-0.974;2022-12-18T09:03:14;100311.28;;;0.92;100.00
51439;BME280;38816;51.142;-0.974;2022-12-18T09:05:40;100304.19;;;1.01;100.00
51439;BME280;38816;51.142;-0.974;2022-12-18T09:08:06;100309.44;;;1.04;100.00
51439;BME280;38816;51.142;-0.974;2022-12-18T09:10:31;100312.84;;;1.05;100.00
51439;BME280;38816;51.142;-0.974;2022-12-18T09:12:57;100304.13;;;0.99;100.00
51439;BME280;38816;51.142;-0.974;2022-12-18T09:15:22;100325.56;;;1.06;100.00
51439;BME280;38816;51.142;-0.974;2022-12-18T09:17:48;100319.72;;;1.07;100.00
51439;BME280;38816;51.142;-0.974;2022-12-18T09:20:15;100305.06;;;1.01;100.00
51439;BME280;38816;51.142;-0.974;2022-12-18T09:22:40;100321.47;;;1.08;100.00
51439;BME280;38816;51.142;-0.974;2022-12-18T09:25:06;100295.81;;;1.02;100.00
51439;BME280;38816;51.142;-0.974;2022-12-18T09:27:33;100297.66;;;1.05;100.00
51439;BME280;38816;51.142;-0.974;2022-12-18T09:29:59;100297.34;;;1.15;100.00
51439;BME280;38816;51.142;-0.974;2022-12-18T09:32:24;100287.22;;;1.15;100.00
51439;BME280;38816;51.142;-0.974;2022-12-18T09:34:49;100299.19;;;1.17;100.00
51439;BME280;38816;51.142;-0.974;2022-12-18T09:37:15;100289.94;;;1.18;100.00
51439;BME280;38816;51.142;-0.974;2022-12-18T09:39:40;100293.34;;;1.18;100.00
51439;BME280;38816;51.142;-0.974;2022-12-18T09:42:06;100296.81;;;1.20;100.00
51439;BME280;38816;51.142;-0.974;2022-12-18T09:44:41;100298.28;;;1.17;100.00
51439;BME280;38816;51.142;-0.974;2022-12-18T09:47:24;100301.19;;;1.23;100.00
51439;BME280;38816;51.142;-0.974;2022-12-18T09:49:54;100301.06;;;1.21;100.00
51439;BME280;38816;51.142;-0.974;2022-12-18T09:52:23;100291.94;;;1.23;100.00
51439;BME280;38816;51.142;-0.974;2022-12-18T09:55:03;100286.78;;;1.22;100.00
51439;BME280;38816;51.142;-0.974;2022-12-18T09:57:33;100272.34;;;1.21;100.00
51439;BME280;38816;51.142;-0.974;2022-12-18T10:02:34;100265.72;;;1.23;100.00
51439;BME280;38816;51.142;-0.974;2022-12-18T10:05:29;100266.06;;;1.29;100.00
51439;BME280;38816;51.142;-0.974;2022-12-18T10:10:49;100278.09;;;1.33;100.00
51439;BME280;38816;51.142;-0.974;2022-12-18T10:13:40;100274.06;;;1.37;100.00
51439;BME280;38816;51.142;-0.974;2022-12-18T10:16:16;100265.50;;;1.35;100.00
51439;BME280;38816;51.142;-0.974;2022-12-18T10:21:18;100253.00;;;1.38;100.00
51439;BME280;38816;51.142;-0.974;2022-12-18T10:23:54;100244.63;;;1.39;100.00
51439;BME280;38816;51.142;-0.974;2022-12-18T10:26:22;100228.41;;;1.35;100.00
51439;BME280;38816;51.142;-0.974;2022-12-18T10:28:49;100223.41;;;1.37;100.00
51439;BME280;38816;51.142;-0.974;2022-12-18T10:31:24;100219.28;;;1.39;100.00
51439;BME280;38816;51.142;-0.974;2022-12-18T10:33:50;100228.97;;;1.46;100.00
51439;BME280;38816;51.142;-0.974;2022-12-18T10:36:15;100217.56;;;1.38;100.00
51439;BME280;38816;51.142;-0.974;2022-12-18T10:38:41;100224.84;;;1.48;100.00
51439;BME280;38816;51.142;-0.974;2022-12-18T10:41:24;100214.56;;;1.45;100.00
51439;BME280;38816;51.142;-0.974;2022-12-18T10:46:44;100231.00;;;1.53;100.00
51439;BME280;38816;51.142;-0.974;2022-12-18T10:49:22;100224.94;;;1.49;100.00
51439;BME280;38816;51.142;-0.974;2022-12-18T10:51:48;100221.44;;;1.47;100.00
51439;BME280;38816;51.142;-0.974;2022-12-18T10:54:17;100222.31;;;1.48;100.00
51439;BME280;38816;51.142;-0.974;2022-12-18T10:56:44;100218.34;;;1.53;100.00
51439;BME280;38816;51.142;-0.974;2022-12-18T10:59:12;100221.84;;;1.55;100.00
51439;BME280;38816;51.142;-0.974;2022-12-18T11:01:50;100208.06;;;1.50;100.00
51439;BME280;38816;51.142;-0.974;2022-12-18T11:09:23;100185.28;;;1.50;100.00
51439;BME280;38816;51.142;-0.974;2022-12-18T11:11:50;100171.34;;;1.58;100.00
51439;BME280;38816;51.142;-0.974;2022-12-18T11:14:33;100179.19;;;1.63;100.00
51439;BME280;38816;51.142;-0.974;2022-12-18T11:17:00;100170.72;;;1.62;100.00
51439;BME280;38816;51.142;-0.974;2022-12-18T11:19:35;100177.25;;;1.75;100.00
51439;BME280;38816;51.142;-0.974;2022-12-18T11:22:04;100162.13;;;1.76;100.00
51439;BME280;38816;51.142;-0.974;2022-12-18T11:24:56;100157.84;;;1.75;100.00
51439;BME280;38816;51.142;-0.974;2022-12-18T11:27:38;100163.22;;;1.82;100.00
51439;BME280;38816;51.142;-0.974;2022-12-18T11:30:10;100135.03;;;1.75;100.00
51439;BME280;38816;51.142;-0.974;2022-12-18T11:32:48;100135.84;;;1.74;100.00
51439;BME280;38816;51.142;-0.974;2022-12-18T11:35:34;100132.09;;;1.84;100.00
51439;BME280;38816;51.142;-0.974;2022-12-18T11:38:06;100126.94;;;1.83;100.00
51439;BME280;38816;51.142;-0.974;2022-12-18T11:40:37;100136.22;;;1.82;100.00
51439;BME280;38816;51.142;-0.974;2022-12-18T11:45:45;100128.63;;;1.82;100.00
51439;BME280;38816;51.142;-0.974;2022-12-18T11:48:17;100118.53;;;1.84;100.00
51439;BME280;38816;51.142;-0.974;2022-12-18T11:50:57;100106.84;;;1.86;100.00
51439;BME280;38816;51.142;-0.974;2022-12-18T11:53:25;100097.50;;;1.85;100.00
51439;BME280;38816;51.142;-0.974;2022-12-18T11:58:46;100083.28;;;1.88;100.00
51439;BME280;38816;51.142;-0.974;2022-12-18T12:12:24;100034.56;;;1.94;100.00
51439;BME280;38816;51.142;-0.974;2022-12-18T12:18:15;100019.28;;;1.92;100.00
51439;BME280;38816;51.142;-0.974;2022-12-18T12:23:39;100029.41;;;2.10;100.00
51439;BME280;38816;51.142;-0.974;2022-12-18T12:26:13;100019.25;;;2.10;100.00
51439;BME280;38816;51.142;-0.974;2022-12-18T12:28:57;100011.81;;;2.13;100.00
51439;BME280;38816;51.142;-0.974;2022-12-18T12:31:39;100002.03;;;2.21;100.00
51439;BME280;38816;51.142;-0.974;2022-12-18T12:34:16;100011.47;;;2.25;100.00
51439;BME280;38816;51.142;-0.974;2022-12-18T12:39:30;99967.38;;;2.21;100.00
51439;BME280;38816;51.142;-0.974;2022-12-18T12:41:57;99982.41;;;2.36;100.00
51439;BME280;38816;51.142;-0.974;2022-12-18T12:44:44;99963.00;;;2.37;100.00
51439;BME280;38816;51.142;-0.974;2022-12-18T12:47:22;99964.47;;;2.51;100.00
51439;BME280;38816;51.142;-0.974;2022-12-18T12:49:49;99959.38;;;2.51;100.00
51439;BME280;38816;51.142;-0.974;2022-12-18T12:52:23;99940.91;;;2.53;100.00
51439;BME280;38816;51.142;-0.974;2022-12-18T12:54:53;99938.97;;;2.67;100.00
51439;BME280;38816;51.142;-0.974;2022-12-18T12:57:27;99929.72;;;2.69;100.00
51439;BME280;38816;51.142;-0.974;2022-12-18T13:00:17;99930.00;;;2.75;100.00
51439;BME280;38816;51.142;-0.974;2022-12-18T13:05:53;99921.44;;;2.93;100.00
51439;BME280;38816;51.142;-0.974;2022-12-18T13:08:31;99915.59;;;2.95;100.00
51439;BME280;38816;51.142;-0.974;2022-12-18T13:10:58;99925.13;;;3.01;100.00
51439;BME280;38816;51.142;-0.974;2022-12-18T13:16:19;99920.53;;;3.12;100.00
51439;BME280;38816;51.142;-0.974;2022-12-18T13:18:53;99906.06;;;3.11;100.00
51439;BME280;38816;51.142;-0.974;2022-12-18T13:21:29;99915.06;;;3.23;100.00
51439;BME280;38816;51.142;-0.974;2022-12-18T13:23:56;99906.47;;;3.20;100.00
51439;BME280;38816;51.142;-0.974;2022-12-18T13:36:38;99885.28;;;3.42;100.00
51439;BME280;38816;51.142;-0.974;2022-12-18T13:41:38;99887.84;;;3.42;100.00
51439;BME280;38816;51.142;-0.974;2022-12-18T13:44:34;99883.81;;;3.47;100.00
51439;BME280;38816;51.142;-0.974;2022-12-18T13:47:02;99862.31;;;3.39;100.00
51439;BME280;38816;51.142;-0.974;2022-12-18T13:52:01;99859.47;;;3.52;100.00
51439;BME280;38816;51.142;-0.974;2022-12-18T13:54:35;99872.56;;;3.63;100.00
51439;BME280;38816;51.142;-0.974;2022-12-18T13:57:02;99858.22;;;3.65;100.00
51439;BME280;38816;51.142;-0.974;2022-12-18T13:59:38;99861.19;;;3.75;100.00
51439;BME280;38816;51.142;-0.974;2022-12-18T14:02:27;99848.34;;;3.72;100.00
51439;BME280;38816;51.142;-0.974;2022-12-18T14:04:53;99862.34;;;3.84;100.00
51439;BME280;38816;51.142;-0.974;2022-12-18T14:09:50;99846.81;;;4.00;100.00
51439;BME280;38816;51.142;-0.974;2022-12-18T14:12:18;99844.56;;;4.07;100.00
51439;BME280;38816;51.142;-0.974;2022-12-18T14:15:06;99837.78;;;4.08;100.00